createdAt,value
2022-08-28T00:00:12.843Z,92.20
2022-08-28T00:02:40.933Z,92.00
2022-08-28T00:05:09.739Z,92.40
2022-08-28T00:07:37.706Z,92.50
2022-08-28T00:10:08.883Z,92.50
2022-08-28T00:12:37.850Z,92.80
2022-08-28T00:15:10.359Z,93.30
2022-08-28T00:17:40.996Z,93.40
2022-08-28T00:20:11.978Z,93.50
2022-08-28T00:22:40.218Z,93.80
2022-08-28T00:25:10.067Z,93.40
2022-08-28T00:27:53.324Z,93.20
2022-08-28T00:30:27.104Z,93.40
2022-08-28T00:32:58.330Z,92.80
2022-08-28T00:35:25.662Z,92.70
2022-08-28T00:37:54.902Z,92.70
2022-08-28T00:40:28.505Z,92.60
2022-08-28T00:42:59.027Z,92.60
2022-08-28T00:45:26.854Z,92.70
2022-08-28T00:47:54.336Z,92.80
2022-08-28T00:50:25.546Z,92.80
2022-08-28T00:52:57.771Z,93.00
2022-08-28T00:55:27.382Z,93.10
2022-08-28T00:57:59.020Z,93.20
2022-08-28T01:00:33.920Z,93.00
2022-08-28T01:03:02.191Z,93.00
2022-08-28T01:05:30.218Z,93.10
2022-08-28T01:08:01.606Z,93.20
2022-08-28T01:10:32.707Z,93.40
2022-08-28T01:13:00.997Z,93.00
2022-08-28T01:15:32.713Z,93.10
2022-08-28T01:18:08.225Z,93.20
2022-08-28T01:20:39.855Z,93.20
2022-08-28T01:23:34.277Z,93.20
2022-08-28T01:26:01.548Z,93.20
2022-08-28T01:28:33.976Z,93.10
2022-08-28T01:31:01.757Z,93.10
2022-08-28T01:33:29.031Z,93.10
2022-08-28T01:35:56.407Z,93.20
2022-08-28T01:38:24.877Z,93.30
2022-08-28T01:40:54.960Z,93.30
2022-08-28T01:43:26.351Z,93.40
2022-08-28T01:46:02.134Z,93.40
2022-08-28T01:48:31.743Z,93.50
2022-08-28T01:50:59.167Z,93.40
2022-08-28T01:53:32.654Z,93.50
2022-08-28T01:56:04.486Z,93.70
2022-08-28T01:58:37.533Z,93.90
2022-08-28T02:01:13.622Z,94.00
2022-08-28T02:03:43.360Z,94.00
2022-08-28T02:06:13.153Z,93.90
2022-08-28T02:08:40.636Z,94.00
2022-08-28T02:11:09.149Z,94.10
2022-08-28T02:13:38.136Z,94.20
2022-08-28T02:16:09.199Z,94.30
2022-08-28T02:18:37.942Z,94.40
2022-08-28T02:21:07.507Z,94.50
2022-08-28T02:23:36.196Z,94.90
2022-08-28T02:26:03.798Z,94.60
2022-08-28T02:28:31.179Z,94.70
2022-08-28T02:30:59.658Z,94.70
2022-08-28T02:33:27.006Z,94.80
2022-08-28T02:35:55.177Z,94.90
2022-08-28T02:38:22.740Z,94.90
2022-08-28T02:40:50.136Z,94.90
2022-08-28T02:43:17.525Z,94.90
2022-08-28T02:45:44.852Z,94.90
2022-08-28T02:48:16.994Z,94.90
2022-08-28T02:50:46.253Z,95.00
2022-08-28T02:53:14.332Z,95.00
2022-08-28T02:55:41.664Z,95.00
2022-08-28T02:58:09.728Z,94.90
2022-08-28T03:00:37.211Z,94.90
2022-08-28T03:03:05.437Z,94.90
2022-08-28T03:05:32.776Z,95.00
2022-08-28T03:08:00.253Z,95.20
2022-08-28T03:10:28.706Z,95.20
2022-08-28T03:12:56.358Z,95.40
2022-08-28T03:15:23.881Z,95.50
2022-08-28T03:17:51.183Z,95.60
2022-08-28T03:20:19.059Z,95.70
2022-08-28T03:23:04.954Z,95.70
2022-08-28T03:25:32.640Z,95.70
2022-08-28T03:27:59.888Z,95.80
2022-08-28T03:30:27.297Z,95.80
2022-08-28T03:32:54.653Z,95.90
2022-08-28T03:35:22.268Z,95.90
2022-08-28T03:37:49.917Z,96.00
2022-08-28T03:40:17.310Z,96.10
2022-08-28T03:42:51.303Z,96.20
2022-08-28T03:45:21.740Z,96.30
2022-08-28T03:47:49.097Z,96.50
2022-08-28T03:50:18.640Z,96.70
2022-08-28T03:52:47.507Z,96.90
2022-08-28T03:55:14.912Z,97.00
2022-08-28T03:57:42.300Z,97.10
2022-08-28T04:00:13.233Z,97.10
2022-08-28T04:02:45.044Z,97.30
2022-08-28T04:05:13.974Z,97.40
2022-08-28T04:07:41.308Z,97.40
2022-08-28T04:10:09.237Z,97.50
2022-08-28T04:12:37.436Z,97.50
2022-08-28T04:15:07.083Z,97.60
2022-08-28T04:17:37.128Z,97.70
2022-08-28T04:20:05.227Z,97.60
2022-08-28T04:22:33.095Z,97.50
2022-08-28T04:25:01.066Z,97.40
2022-08-28T04:27:28.581Z,97.20
2022-08-28T04:29:55.846Z,97.10
2022-08-28T04:32:23.855Z,97.20
2022-08-28T04:34:51.767Z,97.30
2022-08-28T04:37:19.686Z,97.50
2022-08-28T04:39:47.020Z,97.80
2022-08-28T04:42:14.622Z,98.00
2022-08-28T04:44:42.276Z,98.00
2022-08-28T04:47:09.646Z,98.10
2022-08-28T04:49:37.091Z,98.10
2022-08-28T04:52:05.028Z,98.20
2022-08-28T04:54:34.515Z,98.20
2022-08-28T04:57:03.191Z,98.10
2022-08-28T04:59:34.272Z,98.00
2022-08-28T05:02:01.791Z,97.90
2022-08-28T05:04:29.411Z,97.80
2022-08-28T05:06:56.738Z,97.70
2022-08-28T05:09:24.348Z,97.60
2022-08-28T05:12:16.053Z,97.50
2022-08-28T05:14:44.134Z,97.50
2022-08-28T05:17:14.018Z,97.50
2022-08-28T05:19:41.567Z,97.50
2022-08-28T05:22:11.908Z,97.50
2022-08-28T05:24:40.151Z,97.70
2022-08-28T05:27:08.663Z,97.30
2022-08-28T05:29:36.379Z,97.20
2022-08-28T05:32:04.695Z,97.10
2022-08-28T05:34:32.025Z,97.00
2022-08-28T05:36:59.435Z,96.80
2022-08-28T05:39:26.675Z,96.60
2022-08-28T05:41:53.939Z,96.40
2022-08-28T05:44:21.699Z,96.20
2022-08-28T05:46:49.856Z,95.90
2022-08-28T05:49:19.455Z,95.70
2022-08-28T05:51:47.818Z,95.50
2022-08-28T05:54:15.866Z,95.40
2022-08-28T05:56:45.286Z,95.20
2022-08-28T05:59:13.718Z,95.00
2022-08-28T06:01:44.305Z,94.70
2022-08-28T06:04:15.217Z,94.40
2022-08-28T06:06:43.729Z,94.10
2022-08-28T06:09:17.699Z,93.70
2022-08-28T06:11:46.171Z,93.20
2022-08-28T06:14:18.018Z,92.80
2022-08-28T06:16:52.091Z,92.40
2022-08-28T06:19:21.679Z,92.00
2022-08-28T06:21:53.275Z,91.50
2022-08-28T06:24:20.664Z,90.90
2022-08-28T06:26:47.915Z,90.60
2022-08-28T06:29:21.124Z,90.20
2022-08-28T06:31:58.783Z,89.80
2022-08-28T06:34:26.984Z,90.00
2022-08-28T06:36:54.570Z,88.90
2022-08-28T06:39:23.100Z,88.60
2022-08-28T06:41:50.808Z,88.20
2022-08-28T06:44:20.164Z,87.90
2022-08-28T06:46:49.956Z,87.30
2022-08-28T06:49:17.237Z,86.80
2022-08-28T06:51:44.631Z,86.70
2022-08-28T06:54:12.128Z,86.20
2022-08-28T06:56:39.649Z,86.00
2022-08-28T06:59:06.997Z,86.10
2022-08-28T07:01:36.545Z,85.90
2022-08-28T07:04:08.927Z,85.50
2022-08-28T07:06:41.345Z,84.80
2022-08-28T07:09:13.308Z,84.00
2022-08-28T07:11:43.666Z,83.50
2022-08-28T07:14:11.111Z,82.90
2022-08-28T07:16:39.514Z,82.10
2022-08-28T07:19:10.567Z,81.40
2022-08-28T07:21:43.371Z,80.50
2022-08-28T07:24:13.274Z,79.70
2022-08-28T07:26:41.543Z,79.10
2022-08-28T07:29:10.080Z,78.60
2022-08-28T07:31:46.007Z,78.30
2022-08-28T07:34:14.229Z,79.30
2022-08-28T07:36:42.523Z,78.70
2022-08-28T07:39:10.884Z,78.70
2022-08-28T07:41:40.322Z,78.80
2022-08-28T07:44:28.245Z,78.90
2022-08-28T07:46:58.004Z,78.10
2022-08-28T07:49:25.906Z,78.30
2022-08-28T07:51:54.593Z,78.60
2022-08-28T07:54:23.489Z,79.30
2022-08-28T07:56:51.331Z,79.80
2022-08-28T07:59:20.203Z,80.30
2022-08-28T08:01:51.427Z,80.00
2022-08-28T08:04:20.042Z,80.10
2022-08-28T08:06:47.526Z,80.20
2022-08-28T08:09:16.958Z,80.80
2022-08-28T08:11:44.608Z,80.90
2022-08-28T08:14:12.857Z,81.30
2022-08-28T08:16:43.422Z,81.40
2022-08-28T08:19:15.061Z,82.00
2022-08-28T08:21:45.176Z,82.00
2022-08-28T08:24:21.202Z,82.20
2022-08-28T08:26:56.522Z,82.80
2022-08-28T08:29:31.356Z,83.50
2022-08-28T08:32:05.576Z,84.20
2022-08-28T08:34:36.788Z,84.60
2022-08-28T08:37:05.702Z,85.10
2022-08-28T08:39:35.008Z,85.00
2022-08-28T08:42:06.938Z,84.80
2022-08-28T08:44:36.415Z,84.30
2022-08-28T08:47:16.003Z,84.10
2022-08-28T08:49:50.325Z,84.40
2022-08-28T08:52:39.907Z,84.10
2022-08-28T08:55:27.336Z,83.70
2022-08-28T08:58:10.812Z,82.60
2022-08-28T09:00:52.323Z,81.70
2022-08-28T09:03:27.485Z,80.60
2022-08-28T09:06:04.089Z,80.00
2022-08-28T09:08:39.951Z,80.50
2022-08-28T09:11:33.301Z,80.50
2022-08-28T09:14:31.688Z,80.20
2022-08-28T09:17:00.915Z,80.00
2022-08-28T09:19:29.175Z,80.20
2022-08-28T09:21:57.607Z,80.30
2022-08-28T09:24:32.203Z,80.80
2022-08-28T09:27:04.739Z,80.30
2022-08-28T09:29:38.503Z,80.30
2022-08-28T09:32:34.113Z,80.00
2022-08-28T09:35:33.006Z,79.70
2022-08-28T09:38:21.200Z,80.30
2022-08-28T09:41:07.599Z,80.20
2022-08-28T09:43:36.741Z,80.10
2022-08-28T09:46:07.820Z,77.80
2022-08-28T09:48:41.138Z,77.90
2022-08-28T09:51:11.943Z,76.70
2022-08-28T09:53:56.651Z,77.50
2022-08-28T09:56:34.689Z,77.90
2022-08-28T09:59:19.994Z,77.20
2022-08-28T10:01:51.533Z,77.20
2022-08-28T10:04:38.057Z,77.10
2022-08-28T10:07:08.409Z,77.10
2022-08-28T10:09:57.263Z,76.30
2022-08-28T10:12:59.612Z,75.60
2022-08-28T10:15:43.422Z,74.60
2022-08-28T10:18:19.987Z,75.00
2022-08-28T10:20:56.280Z,75.60
2022-08-28T10:23:29.009Z,76.20
2022-08-28T10:26:17.951Z,75.80
2022-08-28T10:29:16.286Z,76.20
2022-08-28T10:31:46.432Z,76.80
2022-08-28T10:34:17.004Z,77.90
2022-08-28T10:36:53.088Z,78.00
2022-08-28T10:39:31.632Z,77.50
2022-08-28T10:42:03.119Z,78.40
2022-08-28T10:44:44.024Z,77.90
2022-08-28T10:47:13.683Z,78.10
2022-08-28T10:49:44.410Z,77.50
2022-08-28T10:52:45.857Z,77.00
2022-08-28T10:55:47.477Z,76.30
2022-08-28T10:58:21.161Z,76.00
2022-08-28T11:01:06.074Z,75.00
2022-08-28T11:03:41.960Z,75.00
2022-08-28T11:06:17.622Z,74.10
2022-08-28T11:08:52.881Z,74.30
2022-08-28T11:11:45.011Z,74.10
2022-08-28T11:14:35.635Z,74.50
2022-08-28T11:17:25.381Z,72.90
2022-08-28T11:20:20.594Z,72.10
2022-08-28T11:23:09.156Z,72.00
2022-08-28T11:25:45.617Z,71.90
2022-08-28T11:28:27.196Z,72.90
2022-08-28T11:31:03.973Z,73.60
2022-08-28T11:33:36.680Z,74.40
2022-08-28T11:36:10.579Z,74.70
2022-08-28T11:38:43.657Z,74.20
2022-08-28T11:41:22.475Z,74.30
2022-08-28T11:44:11.553Z,73.00
2022-08-28T11:46:44.592Z,72.20
2022-08-28T11:49:25.436Z,71.50
2022-08-28T11:51:55.629Z,72.00
2022-08-28T11:54:41.747Z,71.60
2022-08-28T11:57:12.733Z,72.20
2022-08-28T12:00:10.769Z,72.60
2022-08-28T12:02:47.642Z,72.80
2022-08-28T12:05:15.035Z,73.60
2022-08-28T12:07:48.502Z,74.40
2022-08-28T12:10:27.517Z,74.80
2022-08-28T12:12:58.034Z,73.40
2022-08-28T12:15:28.465Z,72.70
2022-08-28T12:18:02.239Z,72.40
2022-08-28T12:20:36.026Z,73.00
2022-08-28T12:23:32.356Z,74.60
2022-08-28T12:26:19.140Z,73.30
2022-08-28T12:28:54.806Z,72.20
2022-08-28T12:31:59.140Z,72.30
2022-08-28T12:34:43.624Z,71.80
2022-08-28T12:37:52.131Z,72.60
2022-08-28T12:40:41.714Z,72.70
2022-08-28T12:43:15.583Z,72.50
2022-08-28T12:45:50.664Z,71.90
2022-08-28T12:48:26.454Z,72.20
2022-08-28T12:51:11.854Z,72.70
2022-08-28T12:53:51.499Z,72.90
2022-08-28T12:56:21.949Z,72.70
2022-08-28T12:58:50.168Z,73.30
2022-08-28T13:01:32.793Z,73.20
2022-08-28T13:04:04.752Z,71.90
2022-08-28T13:06:36.542Z,71.10
2022-08-28T13:09:07.248Z,72.00
2022-08-28T13:11:38.833Z,72.20
2022-08-28T13:14:08.016Z,72.10
2022-08-28T13:16:46.671Z,71.10
2022-08-28T13:19:28.528Z,71.10
2022-08-28T13:22:00.745Z,69.70
2022-08-28T13:24:43.513Z,69.00
2022-08-28T13:27:18.979Z,69.40
2022-08-28T13:30:04.638Z,67.90
2022-08-28T13:32:39.009Z,68.30
2022-08-28T13:35:09.401Z,68.50
2022-08-28T13:37:41.367Z,69.30
2022-08-28T13:40:19.774Z,69.50
2022-08-28T13:43:03.413Z,69.70
2022-08-28T13:45:35.236Z,69.80
2022-08-28T13:48:11.185Z,69.40
2022-08-28T13:50:41.695Z,69.60
2022-08-28T13:53:09.256Z,70.00
2022-08-28T13:55:36.648Z,70.50
2022-08-28T13:58:04.056Z,71.20
2022-08-28T14:00:35.921Z,71.00
2022-08-28T14:03:21.870Z,71.70
2022-08-28T14:05:49.307Z,72.00
2022-08-28T14:08:17.215Z,72.50
2022-08-28T14:10:44.478Z,72.40
2022-08-28T14:13:12.200Z,72.80
2022-08-28T14:15:40.068Z,73.30
2022-08-28T14:20:53.023Z,74.50
2022-08-28T14:23:20.338Z,74.70
2022-08-28T14:25:49.184Z,74.50
2022-08-28T14:28:17.692Z,74.10
2022-08-28T14:30:48.022Z,74.50
2022-08-28T14:33:18.787Z,73.50
2022-08-28T14:35:49.276Z,73.60
2022-08-28T14:38:16.761Z,74.00
2022-08-28T14:40:44.606Z,74.10
2022-08-28T14:43:13.651Z,74.10
2022-08-28T14:45:45.128Z,74.00
2022-08-28T14:48:14.289Z,74.00
2022-08-28T14:50:44.626Z,73.80
2022-08-28T14:53:13.874Z,73.90
2022-08-28T14:55:46.686Z,73.60
2022-08-28T14:58:15.215Z,73.60
2022-08-28T15:00:45.487Z,73.40
2022-08-28T15:03:14.053Z,72.70
2022-08-28T15:05:42.184Z,73.00
2022-08-28T15:08:11.993Z,72.80
2022-08-28T15:10:41.971Z,72.90
2022-08-28T15:13:10.455Z,73.00
2022-08-28T15:15:39.683Z,72.60
2022-08-28T15:18:11.333Z,73.20
2022-08-28T15:20:46.290Z,73.70
2022-08-28T15:23:15.004Z,74.20
2022-08-28T15:25:42.981Z,74.50
2022-08-28T15:28:10.546Z,74.40
2022-08-28T15:30:39.484Z,74.50
2022-08-28T15:33:07.406Z,74.40
2022-08-28T15:35:37.033Z,74.50
2022-08-28T15:38:05.316Z,74.10
2022-08-28T15:40:51.556Z,74.40
2022-08-28T15:43:19.616Z,73.80
2022-08-28T15:45:47.250Z,73.80
2022-08-28T15:48:14.660Z,74.80
2022-08-28T15:50:42.307Z,73.50
2022-08-28T15:53:10.105Z,73.80
2022-08-28T15:55:37.506Z,74.70
2022-08-28T15:58:13.700Z,74.40
2022-08-28T16:00:42.778Z,75.20
2022-08-28T16:03:10.443Z,75.50
2022-08-28T16:05:39.700Z,76.00
2022-08-28T16:08:10.449Z,76.10
2022-08-28T16:10:38.188Z,76.10
2022-08-28T16:13:06.633Z,75.90
2022-08-28T16:15:34.984Z,76.00
2022-08-28T16:18:02.625Z,75.70
2022-08-28T16:20:29.964Z,75.30
2022-08-28T16:22:57.212Z,75.40
2022-08-28T16:25:24.620Z,75.70
2022-08-28T16:27:52.119Z,75.80
2022-08-28T16:30:20.518Z,75.90
2022-08-28T16:32:51.975Z,76.20
2022-08-28T16:35:21.849Z,77.00
2022-08-28T16:37:49.716Z,77.50
2022-08-28T16:40:17.118Z,78.20
2022-08-28T16:42:51.883Z,79.30
2022-08-28T16:45:19.626Z,79.90
2022-08-28T16:47:47.295Z,79.80
2022-08-28T16:50:15.795Z,80.10
2022-08-28T16:52:43.603Z,80.20
2022-08-28T16:55:12.554Z,78.90
2022-08-28T16:57:40.192Z,78.70
2022-08-28T17:00:12.302Z,79.60
2022-08-28T17:02:42.265Z,79.70
2022-08-28T17:05:12.029Z,80.70
2022-08-28T17:07:39.848Z,81.70
2022-08-28T17:10:09.176Z,83.30
2022-08-28T17:12:36.504Z,84.80
2022-08-28T17:15:04.940Z,85.80
2022-08-28T17:17:32.952Z,86.60
2022-08-28T17:20:00.518Z,87.50
2022-08-28T17:22:32.743Z,88.10
2022-08-28T17:25:03.663Z,88.60
2022-08-28T17:27:32.327Z,89.00
2022-08-28T17:30:01.393Z,89.40
2022-08-28T17:32:29.032Z,89.90
2022-08-28T17:34:56.341Z,90.10
2022-08-28T17:37:24.945Z,90.30
2022-08-28T17:39:53.478Z,90.60
2022-08-28T17:42:20.971Z,90.90
2022-08-28T17:44:48.276Z,91.10
2022-08-28T17:47:15.855Z,91.40
2022-08-28T17:49:44.807Z,91.70
2022-08-28T17:52:12.172Z,91.90
2022-08-28T17:54:39.535Z,92.10
2022-08-28T17:57:06.791Z,92.40
2022-08-28T17:59:34.308Z,92.50
2022-08-28T18:02:02.399Z,92.70
2022-08-28T18:04:29.959Z,92.90
2022-08-28T18:06:58.401Z,93.10
2022-08-28T18:09:25.824Z,93.20
2022-08-28T18:11:53.379Z,93.40
2022-08-28T18:14:20.955Z,93.50
2022-08-28T18:16:48.545Z,93.50
2022-08-28T18:19:16.483Z,93.60
2022-08-28T18:21:43.977Z,93.80
2022-08-28T18:24:13.015Z,94.00
2022-08-28T18:26:41.479Z,94.20
2022-08-28T18:29:08.784Z,94.30
2022-08-28T18:31:36.350Z,94.40
2022-08-28T18:34:04.175Z,94.30
2022-08-28T18:36:31.491Z,94.40
2022-08-28T18:38:58.897Z,94.40
2022-08-28T18:41:43.979Z,94.40
2022-08-28T18:44:13.961Z,94.50
2022-08-28T18:46:43.232Z,94.60
2022-08-28T18:49:11.512Z,94.60
2022-08-28T18:51:40.820Z,94.60
2022-08-28T18:54:08.157Z,94.90
2022-08-28T18:56:36.202Z,95.00
2022-08-28T18:59:06.483Z,95.30
2022-08-28T19:01:34.504Z,95.70
2022-08-28T19:04:02.419Z,96.10
2022-08-28T19:06:29.778Z,96.40
2022-08-28T19:08:57.264Z,96.50
2022-08-28T19:11:24.748Z,96.70
2022-08-28T19:13:52.556Z,96.80
2022-08-28T19:16:20.640Z,97.00
2022-08-28T19:18:51.478Z,97.10
2022-08-28T19:21:21.178Z,97.20
2022-08-28T19:23:56.237Z,97.20
2022-08-28T19:26:27.412Z,97.40
2022-08-28T19:28:55.475Z,97.40
2022-08-28T19:31:24.209Z,97.50
2022-08-28T19:33:51.694Z,97.60
2022-08-28T19:36:19.813Z,97.70
2022-08-28T19:38:47.447Z,97.70
2022-08-28T19:41:14.848Z,97.80
2022-08-28T19:43:44.375Z,97.80
2022-08-28T19:46:18.395Z,97.80
2022-08-28T19:48:52.487Z,97.90
2022-08-28T19:51:23.352Z,98.00
2022-08-28T19:53:57.907Z,98.00
2022-08-28T19:56:32.294Z,98.10
2022-08-28T19:59:02.580Z,98.20
2022-08-28T20:01:33.530Z,98.10
2022-08-28T20:04:01.256Z,98.20
2022-08-28T20:06:31.538Z,98.30
2022-08-28T20:09:00.590Z,98.30
2022-08-28T20:11:30.566Z,98.40
2022-08-28T20:14:03.800Z,98.40
2022-08-28T20:16:34.703Z,98.40
2022-08-28T20:19:03.999Z,98.40
2022-08-28T20:21:37.347Z,98.20
2022-08-28T20:24:07.990Z,98.20
2022-08-28T20:26:36.652Z,98.20
2022-08-28T20:29:06.288Z,98.10
2022-08-28T20:31:34.935Z,98.30
2022-08-28T20:34:02.394Z,98.30
2022-08-28T20:36:30.029Z,98.30
2022-08-28T20:38:57.345Z,98.30
2022-08-28T20:41:24.955Z,98.20
2022-08-28T20:43:52.462Z,98.30
2022-08-28T20:46:20.274Z,98.20
2022-08-28T20:48:48.116Z,98.30
2022-08-28T20:51:15.401Z,98.30
2022-08-28T20:53:42.843Z,98.30
2022-08-28T20:56:10.807Z,98.30
2022-08-28T20:58:38.769Z,98.40
2022-08-28T21:01:06.381Z,98.30
2022-08-28T21:03:33.928Z,98.70
2022-08-28T21:06:01.616Z,98.30
2022-08-28T21:08:29.111Z,98.10
2022-08-28T21:10:56.837Z,98.00
2022-08-28T21:13:24.127Z,97.40
2022-08-28T21:15:51.423Z,97.00
2022-08-28T21:18:18.674Z,96.70
2022-08-28T21:20:46.494Z,96.30
2022-08-28T21:23:14.097Z,96.20
2022-08-28T21:25:42.174Z,96.10
2022-08-28T21:28:09.665Z,95.90
2022-08-28T21:30:37.485Z,95.90
2022-08-28T21:33:05.387Z,96.00
2022-08-28T21:35:32.966Z,96.10
2022-08-28T21:38:00.373Z,95.90
2022-08-28T21:40:27.833Z,95.80
2022-08-28T21:42:55.181Z,95.90
2022-08-28T21:45:22.614Z,95.90
2022-08-28T21:47:50.022Z,95.80
2022-08-28T21:50:17.573Z,95.80
2022-08-28T21:52:45.651Z,95.90
2022-08-28T21:55:15.161Z,96.00
2022-08-28T21:57:42.941Z,96.20
2022-08-28T22:00:19.251Z,96.30
2022-08-28T22:02:47.421Z,96.50
2022-08-28T22:05:15.311Z,96.80
2022-08-28T22:07:44.164Z,97.00
2022-08-28T22:10:12.090Z,97.20
2022-08-28T22:12:39.567Z,97.40
2022-08-28T22:15:07.261Z,97.60
2022-08-28T22:17:34.688Z,97.60
2022-08-28T22:20:02.579Z,97.70
2022-08-28T22:22:48.599Z,97.60
2022-08-28T22:25:15.891Z,97.50
2022-08-28T22:27:43.156Z,97.50
2022-08-28T22:30:10.999Z,97.50
2022-08-28T22:32:38.385Z,97.40
2022-08-28T22:35:06.474Z,97.20
2022-08-28T22:37:36.161Z,97.10
2022-08-28T22:40:09.502Z,97.10
2022-08-28T22:42:41.259Z,97.00
2022-08-28T22:45:09.659Z,96.90
2022-08-28T22:47:36.940Z,96.90
2022-08-28T22:50:05.309Z,96.90
2022-08-28T22:52:32.943Z,96.80
2022-08-28T22:55:00.384Z,97.20
2022-08-28T22:57:27.951Z,96.90
2022-08-28T22:59:55.550Z,96.80
2022-08-28T23:02:22.839Z,96.90
2022-08-28T23:04:54.909Z,97.00
2022-08-28T23:07:22.320Z,96.90
2022-08-28T23:09:49.587Z,96.90
2022-08-28T23:12:17.305Z,96.80
2022-08-28T23:14:48.367Z,96.80
2022-08-28T23:17:17.590Z,96.80
2022-08-28T23:19:47.863Z,96.70
2022-08-28T23:22:16.157Z,96.60
2022-08-28T23:24:43.831Z,96.70
2022-08-28T23:27:34.570Z,96.60
2022-08-28T23:29:58.639Z,96.50
2022-08-28T23:32:26.451Z,96.50
2022-08-28T23:34:53.845Z,96.40
2022-08-28T23:37:21.290Z,96.40
2022-08-28T23:39:50.178Z,96.30
2022-08-28T23:42:18.344Z,96.30
2022-08-28T23:44:47.259Z,96.30
2022-08-28T23:47:14.810Z,96.30
2022-08-28T23:49:42.709Z,96.20
2022-08-28T23:52:10.350Z,96.10
2022-08-28T23:54:39.839Z,96.10
2022-08-28T23:57:08.881Z,96.00
2022-08-28T23:59:38.773Z,95.90
